sensor_id;sensor_type;location;lat;lon;timestamp;temperature;humidity
13332;DHT22;6735;51.456;12.626;2023-07-31T00:01:58;15.50;84.50
13332;DHT22;6735;51.456;12.626;2023-07-31T00:04:23;15.50;84.40
13332;DHT22;6735;51.456;12.626;2023-07-31T00:06:49;15.50;84.50
13332;DHT22;6735;51.456;12.626;2023-07-31T00:09:14;15.50;84.40
13332;DHT22;6735;51.456;12.626;2023-07-31T00:11:40;15.50;84.40
13332;DHT22;6735;51.456;12.626;2023-07-31T00:14:05;15.50;84.40
13332;DHT22;6735;51.456;12.626;2023-07-31T00:16:31;15.50;84.50
13332;DHT22;6735;51.456;12.626;2023-07-31T00:18:56;15.60;84.50
13332;DHT22;6735;51.456;12.626;2023-07-31T00:21:22;15.50;84.40
13332;DHT22;6735;51.456;12.626;2023-07-31T00:23:47;15.50;84.30
13332;DHT22;6735;51.456;12.626;2023-07-31T00:26:13;15.60;84.30
13332;DHT22;6735;51.456;12.626;2023-07-31T00:28:38;15.60;84.40
13332;DHT22;6735;51.456;12.626;2023-07-31T00:31:04;15.60;84.30
13332;DHT22;6735;51.456;12.626;2023-07-31T00:33:31;15.60;84.30
13332;DHT22;6735;51.456;12.626;2023-07-31T00:35:57;15.60;84.30
13332;DHT22;6735;51.456;12.626;2023-07-31T00:38:22;15.60;84.30
13332;DHT22;6735;51.456;12.626;2023-07-31T00:40:48;15.70;84.20
13332;DHT22;6735;51.456;12.626;2023-07-31T00:43:13;15.70;84.10
13332;DHT22;6735;51.456;12.626;2023-07-31T00:45:39;15.70;84.20
13332;DHT22;6735;51.456;12.626;2023-07-31T00:48:05;15.70;84.20
13332;DHT22;6735;51.456;12.626;2023-07-31T00:50:34;15.70;84.10
13332;DHT22;6735;51.456;12.626;2023-07-31T00:53:00;15.70;84.10
13332;DHT22;6735;51.456;12.626;2023-07-31T00:55:26;15.80;84.10
13332;DHT22;6735;51.456;12.626;2023-07-31T00:57:52;15.80;84.20
13332;DHT22;6735;51.456;12.626;2023-07-31T01:00:20;15.80;84.30
13332;DHT22;6735;51.456;12.626;2023-07-31T01:02:46;15.80;84.10
13332;DHT22;6735;51.456;12.626;2023-07-31T01:05:12;15.90;84.20
13332;DHT22;6735;51.456;12.626;2023-07-31T01:08:29;15.90;84.20
13332;DHT22;6735;51.456;12.626;2023-07-31T01:10:40;15.90;84.10
13332;DHT22;6735;51.456;12.626;2023-07-31T01:13:07;15.90;84.30
13332;DHT22;6735;51.456;12.626;2023-07-31T01:15:33;15.90;84.10
13332;DHT22;6735;51.456;12.626;2023-07-31T01:17:59;16.00;84.00
13332;DHT22;6735;51.456;12.626;2023-07-31T01:20:26;16.00;84.00
13332;DHT22;6735;51.456;12.626;2023-07-31T01:26:11;16.00;84.20
13332;DHT22;6735;51.456;12.626;2023-07-31T01:31:23;16.00;84.30
13332;DHT22;6735;51.456;12.626;2023-07-31T01:33:50;16.00;84.30
13332;DHT22;6735;51.456;12.626;2023-07-31T01:36:16;16.00;84.50
13332;DHT22;6735;51.456;12.626;2023-07-31T01:38:42;16.00;84.50
13332;DHT22;6735;51.456;12.626;2023-07-31T01:41:07;16.00;84.70
13332;DHT22;6735;51.456;12.626;2023-07-31T01:43:33;16.00;84.50
13332;DHT22;6735;51.456;12.626;2023-07-31T01:45:58;16.00;84.70
13332;DHT22;6735;51.456;12.626;2023-07-31T01:48:24;16.00;84.80
13332;DHT22;6735;51.456;12.626;2023-07-31T01:50:49;16.00;84.70
13332;DHT22;6735;51.456;12.626;2023-07-31T01:53:15;16.00;84.80
13332;DHT22;6735;51.456;12.626;2023-07-31T01:55:40;16.00;84.90
13332;DHT22;6735;51.456;12.626;2023-07-31T01:58:06;16.00;85.00
13332;DHT22;6735;51.456;12.626;2023-07-31T02:00:31;16.00;85.00
13332;DHT22;6735;51.456;12.626;2023-07-31T02:02:57;16.00;85.10
13332;DHT22;6735;51.456;12.626;2023-07-31T02:05:24;16.00;85.20
13332;DHT22;6735;51.456;12.626;2023-07-31T02:07:49;16.10;85.30
13332;DHT22;6735;51.456;12.626;2023-07-31T02:10:15;16.00;85.40
13332;DHT22;6735;51.456;12.626;2023-07-31T02:12:41;15.90;85.40
13332;DHT22;6735;51.456;12.626;2023-07-31T02:15:06;16.00;85.50
13332;DHT22;6735;51.456;12.626;2023-07-31T02:17:32;16.00;85.60
13332;DHT22;6735;51.456;12.626;2023-07-31T02:19:57;16.00;85.60
13332;DHT22;6735;51.456;12.626;2023-07-31T02:22:23;16.00;85.70
13332;DHT22;6735;51.456;12.626;2023-07-31T02:24:48;16.00;85.80
13332;DHT22;6735;51.456;12.626;2023-07-31T02:27:14;16.00;85.80
13332;DHT22;6735;51.456;12.626;2023-07-31T02:29:39;16.00;86.00
13332;DHT22;6735;51.456;12.626;2023-07-31T02:32:05;16.10;85.90
13332;DHT22;6735;51.456;12.626;2023-07-31T02:34:31;16.00;85.70
13332;DHT22;6735;51.456;12.626;2023-07-31T02:36:56;16.00;85.80
13332;DHT22;6735;51.456;12.626;2023-07-31T02:39:22;16.10;85.80
13332;DHT22;6735;51.456;12.626;2023-07-31T02:41:47;16.00;85.90
13332;DHT22;6735;51.456;12.626;2023-07-31T02:44:13;16.10;86.10
13332;DHT22;6735;51.456;12.626;2023-07-31T02:46:40;16.00;86.20
13332;DHT22;6735;51.456;12.626;2023-07-31T02:49:05;16.00;86.30
13332;DHT22;6735;51.456;12.626;2023-07-31T02:51:31;16.00;86.20
13332;DHT22;6735;51.456;12.626;2023-07-31T02:53:56;16.00;86.20
13332;DHT22;6735;51.456;12.626;2023-07-31T02:56:22;16.00;86.30
13332;DHT22;6735;51.456;12.626;2023-07-31T02:58:47;16.00;86.20
13332;DHT22;6735;51.456;12.626;2023-07-31T03:01:13;16.00;86.20
13332;DHT22;6735;51.456;12.626;2023-07-31T03:03:39;16.00;86.30
13332;DHT22;6735;51.456;12.626;2023-07-31T03:06:04;16.00;86.30
13332;DHT22;6735;51.456;12.626;2023-07-31T03:08:30;16.00;86.30
13332;DHT22;6735;51.456;12.626;2023-07-31T03:10:56;15.90;86.50
13332;DHT22;6735;51.456;12.626;2023-07-31T03:13:22;15.90;86.60
13332;DHT22;6735;51.456;12.626;2023-07-31T03:15:47;15.90;86.60
13332;DHT22;6735;51.456;12.626;2023-07-31T03:18:13;15.90;86.70
13332;DHT22;6735;51.456;12.626;2023-07-31T03:20:42;15.90;86.50
13332;DHT22;6735;51.456;12.626;2023-07-31T03:23:08;15.80;86.30
13332;DHT22;6735;51.456;12.626;2023-07-31T03:25:33;15.80;86.20
13332;DHT22;6735;51.456;12.626;2023-07-31T03:27:59;15.70;86.10
13332;DHT22;6735;51.456;12.626;2023-07-31T03:30:24;15.80;86.00
13332;DHT22;6735;51.456;12.626;2023-07-31T03:32:50;15.80;86.10
13332;DHT22;6735;51.456;12.626;2023-07-31T03:35:15;15.80;86.10
13332;DHT22;6735;51.456;12.626;2023-07-31T03:37:41;15.80;86.10
13332;DHT22;6735;51.456;12.626;2023-07-31T03:40:07;15.90;86.30
13332;DHT22;6735;51.456;12.626;2023-07-31T03:42:33;15.80;86.20
13332;DHT22;6735;51.456;12.626;2023-07-31T03:44:58;15.80;86.10
13332;DHT22;6735;51.456;12.626;2023-07-31T03:47:24;15.90;86.20
13332;DHT22;6735;51.456;12.626;2023-07-31T03:49:49;15.90;86.40
13332;DHT22;6735;51.456;12.626;2023-07-31T03:52:15;15.90;86.40
13332;DHT22;6735;51.456;12.626;2023-07-31T03:54:41;15.90;86.40
13332;DHT22;6735;51.456;12.626;2023-07-31T03:57:06;15.90;86.60
13332;DHT22;6735;51.456;12.626;2023-07-31T03:59:32;15.90;86.80
13332;DHT22;6735;51.456;12.626;2023-07-31T04:01:57;15.90;86.70
13332;DHT22;6735;51.456;12.626;2023-07-31T04:04:23;15.90;86.70
13332;DHT22;6735;51.456;12.626;2023-07-31T04:06:48;15.90;86.80
13332;DHT22;6735;51.456;12.626;2023-07-31T04:09:14;15.90;86.50
13332;DHT22;6735;51.456;12.626;2023-07-31T04:11:39;15.90;86.70
13332;DHT22;6735;51.456;12.626;2023-07-31T04:14:05;15.90;86.40
13332;DHT22;6735;51.456;12.626;2023-07-31T04:16:31;15.90;86.40
13332;DHT22;6735;51.456;12.626;2023-07-31T04:18:56;15.90;86.40
13332;DHT22;6735;51.456;12.626;2023-07-31T04:21:22;15.90;86.30
13332;DHT22;6735;51.456;12.626;2023-07-31T04:23:47;15.90;86.40
13332;DHT22;6735;51.456;12.626;2023-07-31T04:26:13;16.00;86.50
13332;DHT22;6735;51.456;12.626;2023-07-31T04:28:38;16.00;86.60
13332;DHT22;6735;51.456;12.626;2023-07-31T04:31:04;16.10;86.60
13332;DHT22;6735;51.456;12.626;2023-07-31T04:33:29;16.10;86.50
13332;DHT22;6735;51.456;12.626;2023-07-31T04:35:55;16.00;86.70
13332;DHT22;6735;51.456;12.626;2023-07-31T04:38:21;16.10;86.80
13332;DHT22;6735;51.456;12.626;2023-07-31T04:40:48;16.10;86.80
13332;DHT22;6735;51.456;12.626;2023-07-31T04:43:13;16.10;86.90
13332;DHT22;6735;51.456;12.626;2023-07-31T04:45:39;16.10;86.60
13332;DHT22;6735;51.456;12.626;2023-07-31T04:48:04;16.00;86.90
13332;DHT22;6735;51.456;12.626;2023-07-31T04:50:30;16.00;86.80
13332;DHT22;6735;51.456;12.626;2023-07-31T04:52:56;16.10;86.80
13332;DHT22;6735;51.456;12.626;2023-07-31T04:55:22;16.00;87.00
13332;DHT22;6735;51.456;12.626;2023-07-31T04:57:47;16.10;86.90
13332;DHT22;6735;51.456;12.626;2023-07-31T05:00:13;16.10;87.00
13332;DHT22;6735;51.456;12.626;2023-07-31T05:02:38;16.10;87.00
13332;DHT22;6735;51.456;12.626;2023-07-31T05:05:04;16.20;87.10
13332;DHT22;6735;51.456;12.626;2023-07-31T05:07:29;16.10;87.20
13332;DHT22;6735;51.456;12.626;2023-07-31T05:09:55;16.10;87.40
13332;DHT22;6735;51.456;12.626;2023-07-31T05:12:21;16.20;87.40
13332;DHT22;6735;51.456;12.626;2023-07-31T05:14:46;16.10;87.30
13332;DHT22;6735;51.456;12.626;2023-07-31T05:17:11;16.20;87.60
13332;DHT22;6735;51.456;12.626;2023-07-31T05:19:37;16.10;87.50
13332;DHT22;6735;51.456;12.626;2023-07-31T05:22:03;16.10;87.50
13332;DHT22;6735;51.456;12.626;2023-07-31T05:24:28;16.10;87.70
13332;DHT22;6735;51.456;12.626;2023-07-31T05:26:54;16.10;88.10
13332;DHT22;6735;51.456;12.626;2023-07-31T05:29:19;16.10;88.10
13332;DHT22;6735;51.456;12.626;2023-07-31T05:31:46;16.10;88.00
13332;DHT22;6735;51.456;12.626;2023-07-31T05:34:11;16.00;88.20
13332;DHT22;6735;51.456;12.626;2023-07-31T05:36:37;16.10;88.40
13332;DHT22;6735;51.456;12.626;2023-07-31T05:39:04;16.10;88.30
13332;DHT22;6735;51.456;12.626;2023-07-31T05:41:32;16.10;88.20
13332;DHT22;6735;51.456;12.626;2023-07-31T05:43:58;16.10;88.40
13332;DHT22;6735;51.456;12.626;2023-07-31T05:46:23;16.10;88.60
13332;DHT22;6735;51.456;12.626;2023-07-31T05:48:49;16.10;88.60
13332;DHT22;6735;51.456;12.626;2023-07-31T05:51:14;16.10;88.50
13332;DHT22;6735;51.456;12.626;2023-07-31T05:53:40;16.20;88.50
13332;DHT22;6735;51.456;12.626;2023-07-31T05:56:06;16.20;88.40
13332;DHT22;6735;51.456;12.626;2023-07-31T05:58:31;16.10;88.60
13332;DHT22;6735;51.456;12.626;2023-07-31T06:00:57;16.20;88.70
13332;DHT22;6735;51.456;12.626;2023-07-31T06:03:22;16.20;88.60
13332;DHT22;6735;51.456;12.626;2023-07-31T06:05:48;16.20;88.60
13332;DHT22;6735;51.456;12.626;2023-07-31T06:08:14;16.30;88.60
13332;DHT22;6735;51.456;12.626;2023-07-31T06:10:39;16.40;88.60
13332;DHT22;6735;51.456;12.626;2023-07-31T06:13:05;16.40;88.70
13332;DHT22;6735;51.456;12.626;2023-07-31T06:15:30;16.40;88.50
13332;DHT22;6735;51.456;12.626;2023-07-31T06:17:56;16.50;88.50
13332;DHT22;6735;51.456;12.626;2023-07-31T06:20:21;16.50;88.50
13332;DHT22;6735;51.456;12.626;2023-07-31T06:22:47;16.60;88.50
13332;DHT22;6735;51.456;12.626;2023-07-31T06:25:12;16.60;88.40
13332;DHT22;6735;51.456;12.626;2023-07-31T06:27:38;16.70;88.30
13332;DHT22;6735;51.456;12.626;2023-07-31T06:30:04;16.70;88.00
13332;DHT22;6735;51.456;12.626;2023-07-31T06:32:30;16.70;88.20
13332;DHT22;6735;51.456;12.626;2023-07-31T06:34:56;16.80;88.00
13332;DHT22;6735;51.456;12.626;2023-07-31T06:37:21;16.90;88.00
13332;DHT22;6735;51.456;12.626;2023-07-31T06:39:47;17.00;87.70
13332;DHT22;6735;51.456;12.626;2023-07-31T06:42:12;17.10;87.60
13332;DHT22;6735;51.456;12.626;2023-07-31T06:44:38;17.10;87.30
13332;DHT22;6735;51.456;12.626;2023-07-31T06:47:03;17.10;87.40
13332;DHT22;6735;51.456;12.626;2023-07-31T06:49:29;17.10;87.10
13332;DHT22;6735;51.456;12.626;2023-07-31T06:51:54;17.20;87.10
13332;DHT22;6735;51.456;12.626;2023-07-31T06:54:20;17.20;87.00
13332;DHT22;6735;51.456;12.626;2023-07-31T06:56:46;17.20;86.90
13332;DHT22;6735;51.456;12.626;2023-07-31T06:59:11;17.40;86.80
13332;DHT22;6735;51.456;12.626;2023-07-31T07:01:37;17.50;86.40
13332;DHT22;6735;51.456;12.626;2023-07-31T07:04:02;17.70;86.40
13332;DHT22;6735;51.456;12.626;2023-07-31T07:06:28;17.80;86.30
13332;DHT22;6735;51.456;12.626;2023-07-31T07:08:53;17.90;86.10
13332;DHT22;6735;51.456;12.626;2023-07-31T07:11:19;18.00;85.90
13332;DHT22;6735;51.456;12.626;2023-07-31T07:13:44;18.00;85.70
13332;DHT22;6735;51.456;12.626;2023-07-31T07:16:10;18.00;85.50
13332;DHT22;6735;51.456;12.626;2023-07-31T07:18:35;18.00;85.40
13332;DHT22;6735;51.456;12.626;2023-07-31T07:21:01;18.00;85.20
13332;DHT22;6735;51.456;12.626;2023-07-31T07:23:27;18.10;85.40
13332;DHT22;6735;51.456;12.626;2023-07-31T07:25:53;18.20;85.50
13332;DHT22;6735;51.456;12.626;2023-07-31T07:28:18;18.20;85.00
13332;DHT22;6735;51.456;12.626;2023-07-31T07:30:44;18.20;85.10
13332;DHT22;6735;51.456;12.626;2023-07-31T07:33:09;18.20;84.90
13332;DHT22;6735;51.456;12.626;2023-07-31T07:35:35;18.20;84.80
13332;DHT22;6735;51.456;12.626;2023-07-31T07:38:04;18.20;84.80
13332;DHT22;6735;51.456;12.626;2023-07-31T07:40:30;18.20;84.80
13332;DHT22;6735;51.456;12.626;2023-07-31T07:42:55;18.20;84.80
13332;DHT22;6735;51.456;12.626;2023-07-31T07:45:21;18.20;84.70
13332;DHT22;6735;51.456;12.626;2023-07-31T07:47:46;18.20;84.70
13332;DHT22;6735;51.456;12.626;2023-07-31T07:50:12;18.20;84.60
13332;DHT22;6735;51.456;12.626;2023-07-31T07:52:37;18.30;84.70
13332;DHT22;6735;51.456;12.626;2023-07-31T07:55:03;18.30;84.80
13332;DHT22;6735;51.456;12.626;2023-07-31T07:57:29;18.20;84.70
13332;DHT22;6735;51.456;12.626;2023-07-31T07:59:55;18.20;84.70
13332;DHT22;6735;51.456;12.626;2023-07-31T08:02:21;18.20;84.40
13332;DHT22;6735;51.456;12.626;2023-07-31T08:04:47;18.20;84.70
13332;DHT22;6735;51.456;12.626;2023-07-31T08:07:12;18.20;84.30
13332;DHT22;6735;51.456;12.626;2023-07-31T08:09:39;18.20;84.40
13332;DHT22;6735;51.456;12.626;2023-07-31T08:12:05;18.40;84.30
13332;DHT22;6735;51.456;12.626;2023-07-31T08:14:31;18.40;84.30
13332;DHT22;6735;51.456;12.626;2023-07-31T08:16:56;18.50;83.90
13332;DHT22;6735;51.456;12.626;2023-07-31T08:19:22;18.60;83.40
13332;DHT22;6735;51.456;12.626;2023-07-31T08:21:48;18.60;83.40
13332;DHT22;6735;51.456;12.626;2023-07-31T08:24:13;18.60;83.30
13332;DHT22;6735;51.456;12.626;2023-07-31T08:26:39;18.70;82.90
13332;DHT22;6735;51.456;12.626;2023-07-31T08:29:04;18.60;82.60
13332;DHT22;6735;51.456;12.626;2023-07-31T08:31:30;18.70;82.50
13332;DHT22;6735;51.456;12.626;2023-07-31T08:33:56;18.70;82.90
13332;DHT22;6735;51.456;12.626;2023-07-31T08:36:22;18.70;82.50
13332;DHT22;6735;51.456;12.626;2023-07-31T08:38:47;18.70;82.30
13332;DHT22;6735;51.456;12.626;2023-07-31T08:41:13;18.70;82.20
13332;DHT22;6735;51.456;12.626;2023-07-31T08:43:39;18.70;82.20
13332;DHT22;6735;51.456;12.626;2023-07-31T08:46:05;18.80;82.10
13332;DHT22;6735;51.456;12.626;2023-07-31T08:48:31;18.90;81.90
13332;DHT22;6735;51.456;12.626;2023-07-31T08:50:57;18.90;81.60
13332;DHT22;6735;51.456;12.626;2023-07-31T08:53:22;19.00;81.50
13332;DHT22;6735;51.456;12.626;2023-07-31T08:55:48;18.90;81.30
13332;DHT22;6735;51.456;12.626;2023-07-31T08:58:15;18.90;81.20
13332;DHT22;6735;51.456;12.626;2023-07-31T09:00:41;18.90;80.70
13332;DHT22;6735;51.456;12.626;2023-07-31T09:03:13;18.90;80.70
13332;DHT22;6735;51.456;12.626;2023-07-31T09:05:42;18.90;81.00
13332;DHT22;6735;51.456;12.626;2023-07-31T09:08:09;18.90;81.10
13332;DHT22;6735;51.456;12.626;2023-07-31T09:10:35;18.90;80.90
13332;DHT22;6735;51.456;12.626;2023-07-31T09:13:06;19.00;81.00
13332;DHT22;6735;51.456;12.626;2023-07-31T09:15:32;18.90;80.50
13332;DHT22;6735;51.456;12.626;2023-07-31T09:17:59;19.00;80.50
13332;DHT22;6735;51.456;12.626;2023-07-31T09:20:26;19.00;80.70
13332;DHT22;6735;51.456;12.626;2023-07-31T09:22:52;19.10;80.50
13332;DHT22;6735;51.456;12.626;2023-07-31T09:25:23;19.10;80.10
13332;DHT22;6735;51.456;12.626;2023-07-31T09:27:51;19.10;80.30
13332;DHT22;6735;51.456;12.626;2023-07-31T09:30:17;19.20;80.30
13332;DHT22;6735;51.456;12.626;2023-07-31T09:32:47;19.30;80.40
13332;DHT22;6735;51.456;12.626;2023-07-31T09:35:19;19.40;80.30
13332;DHT22;6735;51.456;12.626;2023-07-31T09:37:53;19.50;79.80
13332;DHT22;6735;51.456;12.626;2023-07-31T09:40:33;19.40;80.10
13332;DHT22;6735;51.456;12.626;2023-07-31T09:43:07;19.40;79.90
13332;DHT22;6735;51.456;12.626;2023-07-31T09:45:37;19.40;80.30
13332;DHT22;6735;51.456;12.626;2023-07-31T09:48:03;19.50;80.40
13332;DHT22;6735;51.456;12.626;2023-07-31T09:50:31;19.50;80.40
13332;DHT22;6735;51.456;12.626;2023-07-31T09:52:57;19.50;80.10
13332;DHT22;6735;51.456;12.626;2023-07-31T09:55:24;19.60;79.70
13332;DHT22;6735;51.456;12.626;2023-07-31T09:57:50;19.50;79.60
13332;DHT22;6735;51.456;12.626;2023-07-31T10:00:17;19.60;79.30
13332;DHT22;6735;51.456;12.626;2023-07-31T10:02:47;19.70;79.00
13332;DHT22;6735;51.456;12.626;2023-07-31T10:05:16;19.80;78.80
13332;DHT22;6735;51.456;12.626;2023-07-31T10:07:45;19.70;79.00
13332;DHT22;6735;51.456;12.626;2023-07-31T10:10:16;19.80;78.90
13332;DHT22;6735;51.456;12.626;2023-07-31T10:12:42;19.80;78.40
13332;DHT22;6735;51.456;12.626;2023-07-31T10:15:09;19.80;78.30
13332;DHT22;6735;51.456;12.626;2023-07-31T10:17:36;19.80;78.20
13332;DHT22;6735;51.456;12.626;2023-07-31T10:20:02;19.80;78.30
13332;DHT22;6735;51.456;12.626;2023-07-31T10:22:30;19.80;78.10
13332;DHT22;6735;51.456;12.626;2023-07-31T10:24:59;19.70;78.70
13332;DHT22;6735;51.456;12.626;2023-07-31T10:27:24;19.70;78.90
13332;DHT22;6735;51.456;12.626;2023-07-31T10:29:52;19.70;79.30
13332;DHT22;6735;51.456;12.626;2023-07-31T10:32:19;19.80;79.20
13332;DHT22;6735;51.456;12.626;2023-07-31T10:34:46;19.90;79.40
13332;DHT22;6735;51.456;12.626;2023-07-31T10:37:27;20.00;79.00
13332;DHT22;6735;51.456;12.626;2023-07-31T10:40:02;20.10;79.40
13332;DHT22;6735;51.456;12.626;2023-07-31T10:42:38;20.20;79.10
13332;DHT22;6735;51.456;12.626;2023-07-31T10:45:07;20.20;78.60
13332;DHT22;6735;51.456;12.626;2023-07-31T10:47:45;20.30;78.20
13332;DHT22;6735;51.456;12.626;2023-07-31T10:52:50;20.40;77.80
13332;DHT22;6735;51.456;12.626;2023-07-31T10:57:54;20.50;77.90
13332;DHT22;6735;51.456;12.626;2023-07-31T11:00:27;20.50;77.50
13332;DHT22;6735;51.456;12.626;2023-07-31T11:02:58;20.60;77.80
13332;DHT22;6735;51.456;12.626;2023-07-31T11:08:24;20.70;76.60
13332;DHT22;6735;51.456;12.626;2023-07-31T11:11:19;20.80;76.40
13332;DHT22;6735;51.456;12.626;2023-07-31T11:13:45;20.90;74.30
13332;DHT22;6735;51.456;12.626;2023-07-31T11:16:13;21.10;75.40
13332;DHT22;6735;51.456;12.626;2023-07-31T11:18:40;21.20;75.00
13332;DHT22;6735;51.456;12.626;2023-07-31T11:21:07;21.40;74.20
13332;DHT22;6735;51.456;12.626;2023-07-31T11:23:33;21.70;73.20
13332;DHT22;6735;51.456;12.626;2023-07-31T11:26:00;21.90;74.10
13332;DHT22;6735;51.456;12.626;2023-07-31T11:28:32;22.20;73.20
13332;DHT22;6735;51.456;12.626;2023-07-31T11:30:58;22.60;72.40
13332;DHT22;6735;51.456;12.626;2023-07-31T11:33:23;22.90;71.60
13332;DHT22;6735;51.456;12.626;2023-07-31T11:35:49;22.90;70.30
13332;DHT22;6735;51.456;12.626;2023-07-31T11:38:22;22.90;70.00
13332;DHT22;6735;51.456;12.626;2023-07-31T11:40:49;23.00;70.20
13332;DHT22;6735;51.456;12.626;2023-07-31T11:43:15;22.90;70.60
13332;DHT22;6735;51.456;12.626;2023-07-31T11:45:48;22.80;69.60
13332;DHT22;6735;51.456;12.626;2023-07-31T11:48:34;22.90;69.10
13332;DHT22;6735;51.456;12.626;2023-07-31T11:51:02;22.80;66.70
13332;DHT22;6735;51.456;12.626;2023-07-31T11:53:42;22.70;68.20
13332;DHT22;6735;51.456;12.626;2023-07-31T11:56:10;22.80;66.80
13332;DHT22;6735;51.456;12.626;2023-07-31T11:58:38;23.00;67.60
13332;DHT22;6735;51.456;12.626;2023-07-31T12:01:05;23.30;67.30
13332;DHT22;6735;51.456;12.626;2023-07-31T12:03:32;23.40;66.20
13332;DHT22;6735;51.456;12.626;2023-07-31T12:05:59;23.30;66.00
13332;DHT22;6735;51.456;12.626;2023-07-31T12:08:25;23.20;66.20
13332;DHT22;6735;51.456;12.626;2023-07-31T12:10:52;23.20;66.50
13332;DHT22;6735;51.456;12.626;2023-07-31T12:13:25;23.00;66.60
13332;DHT22;6735;51.456;12.626;2023-07-31T12:15:56;22.90;65.50
13332;DHT22;6735;51.456;12.626;2023-07-31T12:18:23;22.90;66.00
13332;DHT22;6735;51.456;12.626;2023-07-31T12:20:54;22.90;65.70
13332;DHT22;6735;51.456;12.626;2023-07-31T12:23:22;22.90;64.80
13332;DHT22;6735;51.456;12.626;2023-07-31T12:26:33;23.00;64.90
13332;DHT22;6735;51.456;12.626;2023-07-31T12:28:59;23.20;62.80
13332;DHT22;6735;51.456;12.626;2023-07-31T12:31:27;23.30;64.00
13332;DHT22;6735;51.456;12.626;2023-07-31T12:33:54;23.60;63.10
13332;DHT22;6735;51.456;12.626;2023-07-31T12:36:22;23.80;62.00
13332;DHT22;6735;51.456;12.626;2023-07-31T12:38:49;24.00;61.50
13332;DHT22;6735;51.456;12.626;2023-07-31T12:41:15;24.20;60.70
13332;DHT22;6735;51.456;12.626;2023-07-31T12:43:42;24.50;60.30
13332;DHT22;6735;51.456;12.626;2023-07-31T12:46:08;24.60;60.40
13332;DHT22;6735;51.456;12.626;2023-07-31T12:48:34;24.70;59.30
13332;DHT22;6735;51.456;12.626;2023-07-31T12:51:01;24.60;59.70
13332;DHT22;6735;51.456;12.626;2023-07-31T12:53:27;24.70;59.50
13332;DHT22;6735;51.456;12.626;2023-07-31T12:55:52;25.00;58.10
13332;DHT22;6735;51.456;12.626;2023-07-31T12:58:18;25.50;57.80
13332;DHT22;6735;51.456;12.626;2023-07-31T13:00:43;25.70;57.00
13332;DHT22;6735;51.456;12.626;2023-07-31T13:03:09;26.10;55.90
13332;DHT22;6735;51.456;12.626;2023-07-31T13:05:34;26.00;56.10
13332;DHT22;6735;51.456;12.626;2023-07-31T13:08:00;26.30;54.80
13332;DHT22;6735;51.456;12.626;2023-07-31T13:10:27;26.40;55.50
13332;DHT22;6735;51.456;12.626;2023-07-31T13:12:54;26.50;54.50
13332;DHT22;6735;51.456;12.626;2023-07-31T13:15:19;26.20;55.10
13332;DHT22;6735;51.456;12.626;2023-07-31T13:17:46;26.20;54.10
13332;DHT22;6735;51.456;12.626;2023-07-31T13:20:11;26.20;54.60
13332;DHT22;6735;51.456;12.626;2023-07-31T13:22:37;25.90;53.90
13332;DHT22;6735;51.456;12.626;2023-07-31T13:25:03;26.00;54.40
13332;DHT22;6735;51.456;12.626;2023-07-31T13:27:28;26.20;53.20
13332;DHT22;6735;51.456;12.626;2023-07-31T13:29:54;26.60;52.90
13332;DHT22;6735;51.456;12.626;2023-07-31T13:32:20;26.70;53.00
13332;DHT22;6735;51.456;12.626;2023-07-31T13:34:47;26.40;52.30
13332;DHT22;6735;51.456;12.626;2023-07-31T13:37:13;26.20;53.20
13332;DHT22;6735;51.456;12.626;2023-07-31T13:39:39;26.00;53.50
13332;DHT22;6735;51.456;12.626;2023-07-31T13:42:06;26.20;52.90
13332;DHT22;6735;51.456;12.626;2023-07-31T13:44:36;26.00;53.20
13332;DHT22;6735;51.456;12.626;2023-07-31T13:47:01;25.70;53.80
13332;DHT22;6735;51.456;12.626;2023-07-31T13:49:28;25.30;54.30
13332;DHT22;6735;51.456;12.626;2023-07-31T13:51:53;25.10;54.50
13332;DHT22;6735;51.456;12.626;2023-07-31T13:54:19;25.20;54.40
13332;DHT22;6735;51.456;12.626;2023-07-31T13:56:45;25.20;54.30
13332;DHT22;6735;51.456;12.626;2023-07-31T13:59:11;25.10;54.60
13332;DHT22;6735;51.456;12.626;2023-07-31T14:01:37;24.90;54.20
13332;DHT22;6735;51.456;12.626;2023-07-31T14:04:03;24.70;53.10
13332;DHT22;6735;51.456;12.626;2023-07-31T14:06:29;24.60;53.50
13332;DHT22;6735;51.456;12.626;2023-07-31T14:08:54;24.40;53.50
13332;DHT22;6735;51.456;12.626;2023-07-31T14:11:21;24.20;54.10
13332;DHT22;6735;51.456;12.626;2023-07-31T14:13:47;24.00;54.10
13332;DHT22;6735;51.456;12.626;2023-07-31T14:16:12;23.90;54.00
13332;DHT22;6735;51.456;12.626;2023-07-31T14:18:38;23.80;54.10
13332;DHT22;6735;51.456;12.626;2023-07-31T14:21:03;23.80;54.10
13332;DHT22;6735;51.456;12.626;2023-07-31T14:23:29;23.70;54.10
13332;DHT22;6735;51.456;12.626;2023-07-31T14:25:54;23.70;54.10
13332;DHT22;6735;51.456;12.626;2023-07-31T14:28:20;23.90;54.30
13332;DHT22;6735;51.456;12.626;2023-07-31T14:30:46;23.90;54.30
13332;DHT22;6735;51.456;12.626;2023-07-31T14:33:11;24.00;54.50
13332;DHT22;6735;51.456;12.626;2023-07-31T14:35:40;23.80;54.80
13332;DHT22;6735;51.456;12.626;2023-07-31T14:38:05;23.70;55.10
13332;DHT22;6735;51.456;12.626;2023-07-31T14:40:31;23.70;55.30
13332;DHT22;6735;51.456;12.626;2023-07-31T14:42:56;23.70;55.40
13332;DHT22;6735;51.456;12.626;2023-07-31T14:45:22;23.70;55.90
13332;DHT22;6735;51.456;12.626;2023-07-31T14:47:48;23.50;56.30
13332;DHT22;6735;51.456;12.626;2023-07-31T14:50:13;23.40;56.40
13332;DHT22;6735;51.456;12.626;2023-07-31T14:52:45;23.40;56.40
13332;DHT22;6735;51.456;12.626;2023-07-31T14:55:10;23.40;56.10
13332;DHT22;6735;51.456;12.626;2023-07-31T14:57:36;23.40;56.30
13332;DHT22;6735;51.456;12.626;2023-07-31T15:00:02;23.20;56.40
13332;DHT22;6735;51.456;12.626;2023-07-31T15:02:35;23.20;56.90
13332;DHT22;6735;51.456;12.626;2023-07-31T15:05:01;23.10;57.00
13332;DHT22;6735;51.456;12.626;2023-07-31T15:07:27;23.00;57.20
13332;DHT22;6735;51.456;12.626;2023-07-31T15:09:52;23.00;57.20
13332;DHT22;6735;51.456;12.626;2023-07-31T15:12:18;23.00;57.40
13332;DHT22;6735;51.456;12.626;2023-07-31T15:14:43;23.00;57.80
13332;DHT22;6735;51.456;12.626;2023-07-31T15:17:09;22.90;57.90
13332;DHT22;6735;51.456;12.626;2023-07-31T15:19:34;22.90;58.10
13332;DHT22;6735;51.456;12.626;2023-07-31T15:22:05;22.90;57.60
13332;DHT22;6735;51.456;12.626;2023-07-31T15:24:31;22.80;57.70
13332;DHT22;6735;51.456;12.626;2023-07-31T15:26:59;22.90;57.30
13332;DHT22;6735;51.456;12.626;2023-07-31T15:29:27;22.80;57.30
13332;DHT22;6735;51.456;12.626;2023-07-31T15:31:52;22.80;57.50
13332;DHT22;6735;51.456;12.626;2023-07-31T15:34:18;22.70;57.50
13332;DHT22;6735;51.456;12.626;2023-07-31T15:36:44;22.70;57.20
13332;DHT22;6735;51.456;12.626;2023-07-31T15:39:09;22.70;57.20
13332;DHT22;6735;51.456;12.626;2023-07-31T15:41:37;22.70;57.40